sensor_id;sensor_type;location;lat;lon;timestamp;P1;durP1;ratioP1;P2;durP2;ratioP2
70148;SDS011;57514;52.164;5.282;2023-07-31T00:00:16;3.70;;;1.05;;
70148;SDS011;57514;52.164;5.282;2023-07-31T00:02:43;7.25;;;1.98;;
70148;SDS011;57514;52.164;5.282;2023-07-31T00:05:11;15.60;;;2.17;;
70148;SDS011;57514;52.164;5.282;2023-07-31T00:07:38;3.90;;;1.10;;
70148;SDS011;57514;52.164;5.282;2023-07-31T00:10:05;3.67;;;1.65;;
70148;SDS011;57514;52.164;5.282;2023-07-31T00:12:33;8.52;;;2.20;;
70148;SDS011;57514;52.164;5.282;2023-07-31T00:15:00;5.60;;;1.40;;
70148;SDS011;57514;52.164;5.282;2023-07-31T00:17:28;11.60;;;1.67;;
70148;SDS011;57514;52.164;5.282;2023-07-31T00:19:56;4.05;;;1.45;;
70148;SDS011;57514;52.164;5.282;2023-07-31T00:22:23;5.78;;;2.05;;
70148;SDS011;57514;52.164;5.282;2023-07-31T00:24:50;3.85;;;1.45;;
70148;SDS011;57514;52.164;5.282;2023-07-31T00:27:18;4.55;;;1.50;;
70148;SDS011;57514;52.164;5.282;2023-07-31T00:29:45;6.25;;;2.25;;
70148;SDS011;57514;52.164;5.282;2023-07-31T00:32:12;7.53;;;2.08;;
70148;SDS011;57514;52.164;5.282;2023-07-31T00:34:39;8.57;;;2.45;;
70148;SDS011;57514;52.164;5.282;2023-07-31T00:37:07;9.75;;;3.05;;
70148;SDS011;57514;52.164;5.282;2023-07-31T00:39:34;7.80;;;2.70;;
70148;SDS011;57514;52.164;5.282;2023-07-31T00:42:02;13.68;;;3.17;;
70148;SDS011;57514;52.164;5.282;2023-07-31T00:44:30;16.73;;;4.10;;
70148;SDS011;57514;52.164;5.282;2023-07-31T00:46:59;16.25;;;4.18;;
70148;SDS011;57514;52.164;5.282;2023-07-31T00:49:26;23.95;;;3.65;;
70148;SDS011;57514;52.164;5.282;2023-07-31T00:51:54;20.92;;;4.60;;
70148;SDS011;57514;52.164;5.282;2023-07-31T00:54:24;24.67;;;6.18;;
70148;SDS011;57514;52.164;5.282;2023-07-31T00:56:51;14.57;;;4.07;;
70148;SDS011;57514;52.164;5.282;2023-07-31T00:59:20;12.73;;;3.42;;
70148;SDS011;57514;52.164;5.282;2023-07-31T01:01:48;13.93;;;3.40;;
70148;SDS011;57514;52.164;5.282;2023-07-31T01:04:15;9.93;;;2.88;;
70148;SDS011;57514;52.164;5.282;2023-07-31T01:12:01;15.77;;;3.60;;
70148;SDS011;57514;52.164;5.282;2023-07-31T01:14:29;12.40;;;3.03;;
70148;SDS011;57514;52.164;5.282;2023-07-31T01:16:57;11.45;;;3.50;;
70148;SDS011;57514;52.164;5.282;2023-07-31T01:19:25;11.93;;;3.30;;
70148;SDS011;57514;52.164;5.282;2023-07-31T01:21:59;13.80;;;3.60;;
70148;SDS011;57514;52.164;5.282;2023-07-31T01:27:38;11.38;;;2.75;;
70148;SDS011;57514;52.164;5.282;2023-07-31T01:30:15;7.97;;;1.95;;
70148;SDS011;57514;52.164;5.282;2023-07-31T01:32:49;8.98;;;2.58;;
70148;SDS011;57514;52.164;5.282;2023-07-31T01:35:16;10.50;;;2.30;;
70148;SDS011;57514;52.164;5.282;2023-07-31T01:37:45;7.20;;;2.17;;
70148;SDS011;57514;52.164;5.282;2023-07-31T01:40:12;8.32;;;2.03;;
70148;SDS011;57514;52.164;5.282;2023-07-31T01:42:39;6.90;;;2.03;;
70148;SDS011;57514;52.164;5.282;2023-07-31T01:45:07;12.00;;;2.80;;
70148;SDS011;57514;52.164;5.282;2023-07-31T01:47:34;11.25;;;2.35;;
70148;SDS011;57514;52.164;5.282;2023-07-31T01:50:02;13.50;;;2.75;;
70148;SDS011;57514;52.164;5.282;2023-07-31T01:52:29;20.42;;;4.50;;
70148;SDS011;57514;52.164;5.282;2023-07-31T01:54:56;19.20;;;4.40;;
70148;SDS011;57514;52.164;5.282;2023-07-31T01:57:24;21.83;;;4.28;;
70148;SDS011;57514;52.164;5.282;2023-07-31T01:59:51;22.17;;;3.35;;
70148;SDS011;57514;52.164;5.282;2023-07-31T02:02:19;27.83;;;4.88;;
70148;SDS011;57514;52.164;5.282;2023-07-31T02:04:47;15.77;;;3.15;;
70148;SDS011;57514;52.164;5.282;2023-07-31T02:07:14;22.98;;;5.05;;
70148;SDS011;57514;52.164;5.282;2023-07-31T02:09:41;17.98;;;4.25;;
70148;SDS011;57514;52.164;5.282;2023-07-31T02:12:08;16.25;;;4.32;;
70148;SDS011;57514;52.164;5.282;2023-07-31T02:14:36;21.08;;;4.65;;
70148;SDS011;57514;52.164;5.282;2023-07-31T02:17:03;23.45;;;4.78;;
70148;SDS011;57514;52.164;5.282;2023-07-31T02:19:30;20.70;;;5.15;;
70148;SDS011;57514;52.164;5.282;2023-07-31T02:21:58;22.33;;;5.18;;
70148;SDS011;57514;52.164;5.282;2023-07-31T02:24:25;18.20;;;3.85;;
70148;SDS011;57514;52.164;5.282;2023-07-31T02:26:52;16.58;;;3.92;;
70148;SDS011;57514;52.164;5.282;2023-07-31T02:29:19;25.25;;;5.05;;
70148;SDS011;57514;52.164;5.282;2023-07-31T02:31:46;23.73;;;4.68;;
70148;SDS011;57514;52.164;5.282;2023-07-31T02:34:13;19.38;;;4.55;;
70148;SDS011;57514;52.164;5.282;2023-07-31T02:36:40;25.70;;;5.07;;
70148;SDS011;57514;52.164;5.282;2023-07-31T02:39:08;29.63;;;5.22;;
70148;SDS011;57514;52.164;5.282;2023-07-31T02:41:35;23.60;;;4.43;;
70148;SDS011;57514;52.164;5.282;2023-07-31T02:44:02;31.40;;;5.80;;
70148;SDS011;57514;52.164;5.282;2023-07-31T02:46:29;20.25;;;4.32;;
70148;SDS011;57514;52.164;5.282;2023-07-31T02:48:56;22.25;;;5.03;;
70148;SDS011;57514;52.164;5.282;2023-07-31T02:51:23;20.23;;;5.18;;
70148;SDS011;57514;52.164;5.282;2023-07-31T02:53:51;24.23;;;4.72;;
70148;SDS011;57514;52.164;5.282;2023-07-31T02:56:18;20.13;;;4.72;;
70148;SDS011;57514;52.164;5.282;2023-07-31T02:58:45;24.67;;;5.20;;
70148;SDS011;57514;52.164;5.282;2023-07-31T03:01:12;27.45;;;5.68;;
70148;SDS011;57514;52.164;5.282;2023-07-31T03:03:41;18.35;;;4.30;;
70148;SDS011;57514;52.164;5.282;2023-07-31T03:06:08;23.20;;;5.20;;
70148;SDS011;57514;52.164;5.282;2023-07-31T03:08:35;16.70;;;4.90;;
70148;SDS011;57514;52.164;5.282;2023-07-31T03:11:03;28.63;;;6.03;;
70148;SDS011;57514;52.164;5.282;2023-07-31T03:13:30;18.25;;;4.53;;
70148;SDS011;57514;52.164;5.282;2023-07-31T03:15:57;26.67;;;5.80;;
70148;SDS011;57514;52.164;5.282;2023-07-31T03:18:24;32.75;;;6.07;;
70148;SDS011;57514;52.164;5.282;2023-07-31T03:20:52;20.67;;;5.10;;
70148;SDS011;57514;52.164;5.282;2023-07-31T03:23:19;24.13;;;5.47;;
70148;SDS011;57514;52.164;5.282;2023-07-31T03:25:59;34.40;;;6.95;;
70148;SDS011;57514;52.164;5.282;2023-07-31T03:28:27;33.35;;;6.82;;
70148;SDS011;57514;52.164;5.282;2023-07-31T03:30:54;21.35;;;5.60;;
70148;SDS011;57514;52.164;5.282;2023-07-31T03:33:22;24.75;;;6.07;;
70148;SDS011;57514;52.164;5.282;2023-07-31T03:35:49;32.03;;;5.85;;
70148;SDS011;57514;52.164;5.282;2023-07-31T03:38:17;22.25;;;5.57;;
70148;SDS011;57514;52.164;5.282;2023-07-31T03:40:44;27.70;;;6.43;;
70148;SDS011;57514;52.164;5.282;2023-07-31T03:43:11;17.60;;;4.22;;
70148;SDS011;57514;52.164;5.282;2023-07-31T03:45:39;26.05;;;6.30;;
70148;SDS011;57514;52.164;5.282;2023-07-31T03:48:06;23.92;;;5.85;;
70148;SDS011;57514;52.164;5.282;2023-07-31T03:50:34;32.58;;;7.20;;
70148;SDS011;57514;52.164;5.282;2023-07-31T03:53:01;26.25;;;5.75;;
70148;SDS011;57514;52.164;5.282;2023-07-31T03:55:28;26.23;;;6.82;;
70148;SDS011;57514;52.164;5.282;2023-07-31T03:57:55;23.75;;;5.95;;
70148;SDS011;57514;52.164;5.282;2023-07-31T04:00:23;26.02;;;5.63;;
70148;SDS011;57514;52.164;5.282;2023-07-31T04:05:20;20.88;;;5.82;;
70148;SDS011;57514;52.164;5.282;2023-07-31T04:07:47;26.95;;;6.57;;
70148;SDS011;57514;52.164;5.282;2023-07-31T04:10:14;20.23;;;4.95;;
70148;SDS011;57514;52.164;5.282;2023-07-31T04:12:41;22.92;;;5.43;;
70148;SDS011;57514;52.164;5.282;2023-07-31T04:15:09;29.52;;;6.85;;
70148;SDS011;57514;52.164;5.282;2023-07-31T04:17:36;24.58;;;5.25;;
70148;SDS011;57514;52.164;5.282;2023-07-31T04:20:03;26.50;;;5.20;;
70148;SDS011;57514;52.164;5.282;2023-07-31T04:22:30;21.98;;;4.95;;
70148;SDS011;57514;52.164;5.282;2023-07-31T04:24:57;26.60;;;6.05;;
70148;SDS011;57514;52.164;5.282;2023-07-31T04:27:24;30.45;;;6.00;;
70148;SDS011;57514;52.164;5.282;2023-07-31T04:29:51;29.83;;;6.25;;
70148;SDS011;57514;52.164;5.282;2023-07-31T04:32:18;32.22;;;6.10;;
70148;SDS011;57514;52.164;5.282;2023-07-31T04:34:47;22.30;;;7.95;;
70148;SDS011;57514;52.164;5.282;2023-07-31T04:37:14;19.52;;;5.43;;
70148;SDS011;57514;52.164;5.282;2023-07-31T04:39:41;26.20;;;5.90;;
70148;SDS011;57514;52.164;5.282;2023-07-31T04:42:08;16.13;;;4.63;;
70148;SDS011;57514;52.164;5.282;2023-07-31T04:44:36;25.38;;;5.95;;
70148;SDS011;57514;52.164;5.282;2023-07-31T04:47:03;17.73;;;5.57;;
70148;SDS011;57514;52.164;5.282;2023-07-31T04:49:31;22.23;;;5.10;;
70148;SDS011;57514;52.164;5.282;2023-07-31T04:51:58;21.88;;;4.95;;
70148;SDS011;57514;52.164;5.282;2023-07-31T04:54:25;22.75;;;5.55;;
70148;SDS011;57514;52.164;5.282;2023-07-31T04:56:53;14.50;;;3.92;;
70148;SDS011;57514;52.164;5.282;2023-07-31T04:59:20;20.83;;;5.72;;
70148;SDS011;57514;52.164;5.282;2023-07-31T05:01:47;19.13;;;6.00;;
70148;SDS011;57514;52.164;5.282;2023-07-31T05:04:15;19.52;;;5.47;;
70148;SDS011;57514;52.164;5.282;2023-07-31T05:06:42;16.40;;;4.72;;
70148;SDS011;57514;52.164;5.282;2023-07-31T05:09:10;16.77;;;4.35;;
70148;SDS011;57514;52.164;5.282;2023-07-31T05:11:38;17.83;;;4.45;;
70148;SDS011;57514;52.164;5.282;2023-07-31T05:14:06;19.27;;;5.35;;
70148;SDS011;57514;52.164;5.282;2023-07-31T05:16:33;17.65;;;4.93;;
70148;SDS011;57514;52.164;5.282;2023-07-31T05:19:01;18.70;;;5.45;;
70148;SDS011;57514;52.164;5.282;2023-07-31T05:21:28;11.43;;;3.40;;
70148;SDS011;57514;52.164;5.282;2023-07-31T05:23:55;15.95;;;4.35;;
70148;SDS011;57514;52.164;5.282;2023-07-31T05:26:23;16.98;;;4.50;;
70148;SDS011;57514;52.164;5.282;2023-07-31T05:28:50;14.50;;;3.60;;
70148;SDS011;57514;52.164;5.282;2023-07-31T05:31:17;13.98;;;3.70;;
70148;SDS011;57514;52.164;5.282;2023-07-31T05:33:44;11.40;;;2.97;;
70148;SDS011;57514;52.164;5.282;2023-07-31T05:36:11;9.02;;;2.70;;
70148;SDS011;57514;52.164;5.282;2023-07-31T05:38:38;12.85;;;3.75;;
70148;SDS011;57514;52.164;5.282;2023-07-31T05:41:08;13.60;;;4.30;;
70148;SDS011;57514;52.164;5.282;2023-07-31T05:43:36;10.73;;;2.90;;
70148;SDS011;57514;52.164;5.282;2023-07-31T05:46:03;10.93;;;2.72;;
70148;SDS011;57514;52.164;5.282;2023-07-31T05:48:32;5.03;;;2.00;;
70148;SDS011;57514;52.164;5.282;2023-07-31T05:51:02;8.75;;;2.42;;
70148;SDS011;57514;52.164;5.282;2023-07-31T05:53:29;9.65;;;3.05;;
70148;SDS011;57514;52.164;5.282;2023-07-31T05:55:57;11.38;;;3.03;;
70148;SDS011;57514;52.164;5.282;2023-07-31T05:58:24;12.50;;;3.53;;
70148;SDS011;57514;52.164;5.282;2023-07-31T06:00:51;10.00;;;3.40;;
70148;SDS011;57514;52.164;5.282;2023-07-31T06:03:18;8.88;;;2.70;;
70148;SDS011;57514;52.164;5.282;2023-07-31T06:05:45;11.60;;;3.53;;
70148;SDS011;57514;52.164;5.282;2023-07-31T06:08:12;13.65;;;3.47;;
70148;SDS011;57514;52.164;5.282;2023-07-31T06:10:39;14.55;;;3.95;;
70148;SDS011;57514;52.164;5.282;2023-07-31T06:13:07;11.88;;;3.42;;
70148;SDS011;57514;52.164;5.282;2023-07-31T06:15:34;8.45;;;2.80;;
70148;SDS011;57514;52.164;5.282;2023-07-31T06:18:01;9.65;;;3.25;;
70148;SDS011;57514;52.164;5.282;2023-07-31T06:20:29;15.30;;;4.07;;
70148;SDS011;57514;52.164;5.282;2023-07-31T06:22:56;11.60;;;3.53;;
70148;SDS011;57514;52.164;5.282;2023-07-31T06:25:24;12.55;;;3.83;;
70148;SDS011;57514;52.164;5.282;2023-07-31T06:27:51;13.90;;;3.42;;
70148;SDS011;57514;52.164;5.282;2023-07-31T06:30:18;10.77;;;3.72;;
70148;SDS011;57514;52.164;5.282;2023-07-31T06:32:45;11.60;;;4.07;;
70148;SDS011;57514;52.164;5.282;2023-07-31T06:35:12;8.70;;;3.35;;
70148;SDS011;57514;52.164;5.282;2023-07-31T06:37:40;12.43;;;3.95;;
70148;SDS011;57514;52.164;5.282;2023-07-31T06:40:09;11.27;;;4.20;;
70148;SDS011;57514;52.164;5.282;2023-07-31T06:42:37;12.95;;;4.30;;
70148;SDS011;57514;52.164;5.282;2023-07-31T06:45:04;12.13;;;4.47;;
70148;SDS011;57514;52.164;5.282;2023-07-31T06:47:32;15.45;;;4.15;;
70148;SDS011;57514;52.164;5.282;2023-07-31T06:49:59;13.85;;;3.60;;
70148;SDS011;57514;52.164;5.282;2023-07-31T06:52:26;13.48;;;3.33;;
70148;SDS011;57514;52.164;5.282;2023-07-31T06:55:04;11.07;;;3.20;;
70148;SDS011;57514;52.164;5.282;2023-07-31T06:57:46;9.10;;;2.53;;
70148;SDS011;57514;52.164;5.282;2023-07-31T07:00:14;7.22;;;2.58;;
70148;SDS011;57514;52.164;5.282;2023-07-31T07:02:41;8.82;;;2.85;;
70148;SDS011;57514;52.164;5.282;2023-07-31T07:05:09;10.52;;;3.00;;
70148;SDS011;57514;52.164;5.282;2023-07-31T07:07:36;10.65;;;3.22;;
70148;SDS011;57514;52.164;5.282;2023-07-31T07:10:04;12.10;;;3.28;;
70148;SDS011;57514;52.164;5.282;2023-07-31T07:12:31;10.23;;;3.40;;
70148;SDS011;57514;52.164;5.282;2023-07-31T07:14:59;11.20;;;3.65;;
70148;SDS011;57514;52.164;5.282;2023-07-31T07:17:27;11.57;;;3.00;;
70148;SDS011;57514;52.164;5.282;2023-07-31T07:19:57;8.88;;;2.42;;
70148;SDS011;57514;52.164;5.282;2023-07-31T07:22:25;6.95;;;2.65;;
70148;SDS011;57514;52.164;5.282;2023-07-31T07:24:53;8.13;;;2.50;;
70148;SDS011;57514;52.164;5.282;2023-07-31T07:27:21;8.32;;;2.72;;
70148;SDS011;57514;52.164;5.282;2023-07-31T07:29:50;10.63;;;3.78;;
70148;SDS011;57514;52.164;5.282;2023-07-31T07:32:20;9.65;;;2.95;;
70148;SDS011;57514;52.164;5.282;2023-07-31T07:34:48;9.15;;;2.55;;
70148;SDS011;57514;52.164;5.282;2023-07-31T07:37:15;8.48;;;2.83;;
70148;SDS011;57514;52.164;5.282;2023-07-31T07:39:42;8.63;;;2.33;;
70148;SDS011;57514;52.164;5.282;2023-07-31T07:42:09;7.65;;;2.13;;
70148;SDS011;57514;52.164;5.282;2023-07-31T07:44:36;7.47;;;2.28;;
70148;SDS011;57514;52.164;5.282;2023-07-31T07:47:04;7.43;;;2.20;;
70148;SDS011;57514;52.164;5.282;2023-07-31T07:49:33;7.20;;;2.67;;
70148;SDS011;57514;52.164;5.282;2023-07-31T07:52:01;6.40;;;2.05;;
70148;SDS011;57514;52.164;5.282;2023-07-31T07:54:29;8.95;;;2.45;;
70148;SDS011;57514;52.164;5.282;2023-07-31T07:56:57;7.10;;;1.95;;
70148;SDS011;57514;52.164;5.282;2023-07-31T07:59:24;5.28;;;2.05;;
70148;SDS011;57514;52.164;5.282;2023-07-31T08:01:51;9.60;;;2.30;;
70148;SDS011;57514;52.164;5.282;2023-07-31T08:04:19;7.70;;;2.42;;
70148;SDS011;57514;52.164;5.282;2023-07-31T08:06:47;6.80;;;1.75;;
70148;SDS011;57514;52.164;5.282;2023-07-31T08:09:14;7.32;;;2.05;;
70148;SDS011;57514;52.164;5.282;2023-07-31T08:11:41;6.40;;;1.73;;
70148;SDS011;57514;52.164;5.282;2023-07-31T08:14:08;6.50;;;1.70;;
70148;SDS011;57514;52.164;5.282;2023-07-31T08:16:36;4.93;;;1.83;;
70148;SDS011;57514;52.164;5.282;2023-07-31T08:19:03;4.38;;;1.83;;
70148;SDS011;57514;52.164;5.282;2023-07-31T08:21:31;4.60;;;1.48;;
70148;SDS011;57514;52.164;5.282;2023-07-31T08:23:58;5.70;;;1.52;;
70148;SDS011;57514;52.164;5.282;2023-07-31T08:26:25;5.10;;;1.35;;
70148;SDS011;57514;52.164;5.282;2023-07-31T08:28:53;5.53;;;1.60;;
70148;SDS011;57514;52.164;5.282;2023-07-31T08:31:20;4.28;;;1.83;;
70148;SDS011;57514;52.164;5.282;2023-07-31T08:33:47;4.65;;;1.40;;
70148;SDS011;57514;52.164;5.282;2023-07-31T08:36:14;2.70;;;1.23;;
70148;SDS011;57514;52.164;5.282;2023-07-31T08:38:41;3.88;;;1.85;;
70148;SDS011;57514;52.164;5.282;2023-07-31T08:41:09;2.42;;;1.20;;
70148;SDS011;57514;52.164;5.282;2023-07-31T08:43:37;3.85;;;1.60;;
70148;SDS011;57514;52.164;5.282;2023-07-31T08:46:05;4.40;;;1.90;;
70148;SDS011;57514;52.164;5.282;2023-07-31T08:48:32;6.13;;;1.70;;
70148;SDS011;57514;52.164;5.282;2023-07-31T08:50:59;7.72;;;2.10;;
70148;SDS011;57514;52.164;5.282;2023-07-31T08:53:27;4.60;;;1.40;;
70148;SDS011;57514;52.164;5.282;2023-07-31T08:55:54;4.60;;;1.65;;
70148;SDS011;57514;52.164;5.282;2023-07-31T08:58:24;3.38;;;1.55;;
70148;SDS011;57514;52.164;5.282;2023-07-31T09:00:53;5.90;;;2.05;;
70148;SDS011;57514;52.164;5.282;2023-07-31T09:03:21;4.40;;;1.73;;
70148;SDS011;57514;52.164;5.282;2023-07-31T09:05:51;4.65;;;1.90;;
70148;SDS011;57514;52.164;5.282;2023-07-31T09:08:20;4.40;;;1.40;;
70148;SDS011;57514;52.164;5.282;2023-07-31T09:10:48;3.83;;;1.40;;
70148;SDS011;57514;52.164;5.282;2023-07-31T09:13:18;4.25;;;1.50;;
70148;SDS011;57514;52.164;5.282;2023-07-31T09:15:45;2.97;;;1.33;;
70148;SDS011;57514;52.164;5.282;2023-07-31T09:18:13;4.93;;;1.50;;
70148;SDS011;57514;52.164;5.282;2023-07-31T09:20:44;3.70;;;1.67;;
70148;SDS011;57514;52.164;5.282;2023-07-31T09:23:12;5.28;;;1.80;;
70148;SDS011;57514;52.164;5.282;2023-07-31T09:25:43;6.05;;;1.90;;
70148;SDS011;57514;52.164;5.282;2023-07-31T09:28:10;4.53;;;1.63;;
70148;SDS011;57514;52.164;5.282;2023-07-31T09:30:48;4.05;;;1.70;;
70148;SDS011;57514;52.164;5.282;2023-07-31T09:33:17;3.50;;;1.63;;
70148;SDS011;57514;52.164;5.282;2023-07-31T09:35:44;2.65;;;1.45;;
70148;SDS011;57514;52.164;5.282;2023-07-31T09:38:12;3.72;;;1.95;;
70148;SDS011;57514;52.164;5.282;2023-07-31T09:40:41;3.13;;;1.35;;
70148;SDS011;57514;52.164;5.282;2023-07-31T09:43:17;5.80;;;2.10;;
70148;SDS011;57514;52.164;5.282;2023-07-31T09:45:48;3.08;;;1.65;;
70148;SDS011;57514;52.164;5.282;2023-07-31T09:48:20;4.22;;;1.88;;
70148;SDS011;57514;52.164;5.282;2023-07-31T09:50:48;3.67;;;1.60;;
70148;SDS011;57514;52.164;5.282;2023-07-31T09:53:15;6.63;;;1.55;;
70148;SDS011;57514;52.164;5.282;2023-07-31T09:55:43;4.00;;;1.73;;
70148;SDS011;57514;52.164;5.282;2023-07-31T09:58:11;3.05;;;1.45;;
70148;SDS011;57514;52.164;5.282;2023-07-31T10:00:39;4.00;;;1.98;;
70148;SDS011;57514;52.164;5.282;2023-07-31T10:03:10;3.90;;;1.60;;
70148;SDS011;57514;52.164;5.282;2023-07-31T10:05:40;4.28;;;1.80;;
70148;SDS011;57514;52.164;5.282;2023-07-31T10:08:09;3.85;;;1.33;;
70148;SDS011;57514;52.164;5.282;2023-07-31T10:10:38;5.55;;;1.83;;
70148;SDS011;57514;52.164;5.282;2023-07-31T10:13:08;5.28;;;2.20;;
70148;SDS011;57514;52.164;5.282;2023-07-31T10:15:36;4.32;;;2.10;;
70148;SDS011;57514;52.164;5.282;2023-07-31T10:18:03;3.40;;;1.63;;
70148;SDS011;57514;52.164;5.282;2023-07-31T10:20:33;4.47;;;1.95;;
70148;SDS011;57514;52.164;5.282;2023-07-31T10:23:00;5.03;;;2.10;;
70148;SDS011;57514;52.164;5.282;2023-07-31T10:25:28;3.90;;;1.85;;
70148;SDS011;57514;52.164;5.282;2023-07-31T10:27:57;6.18;;;2.13;;
70148;SDS011;57514;52.164;5.282;2023-07-31T10:30:26;6.32;;;2.50;;
70148;SDS011;57514;52.164;5.282;2023-07-31T10:32:55;10.57;;;2.33;;
70148;SDS011;57514;52.164;5.282;2023-07-31T10:35:24;5.20;;;2.50;;
70148;SDS011;57514;52.164;5.282;2023-07-31T10:37:51;8.82;;;3.05;;
70148;SDS011;57514;52.164;5.282;2023-07-31T10:40:19;10.40;;;3.40;;
70148;SDS011;57514;52.164;5.282;2023-07-31T10:45:32;8.55;;;3.28;;
70148;SDS011;57514;52.164;5.282;2023-07-31T10:48:01;9.15;;;3.45;;
70148;SDS011;57514;52.164;5.282;2023-07-31T10:50:48;9.55;;;3.17;;
70148;SDS011;57514;52.164;5.282;2023-07-31T10:53:26;11.10;;;3.28;;
70148;SDS011;57514;52.164;5.282;2023-07-31T10:56:01;9.70;;;3.75;;
70148;SDS011;57514;52.164;5.282;2023-07-31T10:58:32;9.30;;;3.65;;
70148;SDS011;57514;52.164;5.282;2023-07-31T11:01:04;9.73;;;3.55;;
70148;SDS011;57514;52.164;5.282;2023-07-31T11:06:13;11.70;;;3.95;;
70148;SDS011;57514;52.164;5.282;2023-07-31T11:08:45;8.65;;;4.18;;
70148;SDS011;57514;52.164;5.282;2023-07-31T11:11:14;8.98;;;3.53;;
70148;SDS011;57514;52.164;5.282;2023-07-31T11:13:46;9.75;;;4.00;;
70148;SDS011;57514;52.164;5.282;2023-07-31T11:16:19;8.25;;;3.50;;
70148;SDS011;57514;52.164;5.282;2023-07-31T11:18:48;9.05;;;3.70;;
70148;SDS011;57514;52.164;5.282;2023-07-31T11:21:16;8.98;;;3.13;;
70148;SDS011;57514;52.164;5.282;2023-07-31T11:23:45;7.00;;;2.90;;
70148;SDS011;57514;52.164;5.282;2023-07-31T11:26:16;7.95;;;3.00;;
70148;SDS011;57514;52.164;5.282;2023-07-31T11:28:46;8.93;;;3.10;;
70148;SDS011;57514;52.164;5.282;2023-07-31T11:31:14;8.02;;;3.03;;
70148;SDS011;57514;52.164;5.282;2023-07-31T11:33:41;7.97;;;3.17;;
70148;SDS011;57514;52.164;5.282;2023-07-31T11:36:15;7.03;;;3.05;;
70148;SDS011;57514;52.164;5.282;2023-07-31T11:38:43;5.70;;;2.65;;
70148;SDS011;57514;52.164;5.282;2023-07-31T11:41:10;4.55;;;2.13;;
70148;SDS011;57514;52.164;5.282;2023-07-31T11:43:37;6.53;;;2.22;;
70148;SDS011;57514;52.164;5.282;2023-07-31T11:46:04;4.45;;;1.92;;
70148;SDS011;57514;52.164;5.282;2023-07-31T11:48:34;5.93;;;2.30;;
70148;SDS011;57514;52.164;5.282;2023-07-31T11:51:07;5.00;;;1.73;;
70148;SDS011;57514;52.164;5.282;2023-07-31T11:56:12;7.93;;;2.50;;
70148;SDS011;57514;52.164;5.282;2023-07-31T11:58:42;9.23;;;2.70;;
70148;SDS011;57514;52.164;5.282;2023-07-31T12:01:10;7.78;;;2.97;;
70148;SDS011;57514;52.164;5.282;2023-07-31T12:03:40;8.48;;;3.47;;
70148;SDS011;57514;52.164;5.282;2023-07-31T12:06:09;9.93;;;3.67;;
70148;SDS011;57514;52.164;5.282;2023-07-31T12:08:36;9.48;;;3.80;;
70148;SDS011;57514;52.164;5.282;2023-07-31T12:11:04;11.00;;;3.97;;
70148;SDS011;57514;52.164;5.282;2023-07-31T12:13:32;10.75;;;3.78;;
70148;SDS011;57514;52.164;5.282;2023-07-31T12:16:00;11.70;;;3.70;;
70148;SDS011;57514;52.164;5.282;2023-07-31T12:18:36;8.52;;;3.33;;
70148;SDS011;57514;52.164;5.282;2023-07-31T12:21:05;9.98;;;3.97;;
70148;SDS011;57514;52.164;5.282;2023-07-31T12:23:38;10.95;;;3.97;;
70148;SDS011;57514;52.164;5.282;2023-07-31T12:26:07;7.75;;;3.47;;
70148;SDS011;57514;52.164;5.282;2023-07-31T12:28:43;9.73;;;3.28;;
70148;SDS011;57514;52.164;5.282;2023-07-31T12:31:12;12.32;;;3.60;;
70148;SDS011;57514;52.164;5.282;2023-07-31T12:33:41;7.63;;;3.25;;
70148;SDS011;57514;52.164;5.282;2023-07-31T12:36:15;7.50;;;3.10;;
70148;SDS011;57514;52.164;5.282;2023-07-31T12:38:44;9.32;;;3.53;;
70148;SDS011;57514;52.164;5.282;2023-07-31T12:41:12;8.15;;;3.30;;
70148;SDS011;57514;52.164;5.282;2023-07-31T12:43:40;10.18;;;3.78;;
70148;SDS011;57514;52.164;5.282;2023-07-31T12:46:14;9.60;;;3.33;;
70148;SDS011;57514;52.164;5.282;2023-07-31T12:48:42;9.05;;;3.53;;
70148;SDS011;57514;52.164;5.282;2023-07-31T12:51:09;10.52;;;3.75;;
70148;SDS011;57514;52.164;5.282;2023-07-31T12:53:37;9.20;;;3.40;;
70148;SDS011;57514;52.164;5.282;2023-07-31T12:56:04;9.63;;;3.78;;
70148;SDS011;57514;52.164;5.282;2023-07-31T12:58:31;9.25;;;3.60;;
70148;SDS011;57514;52.164;5.282;2023-07-31T13:00:58;10.07;;;3.65;;
70148;SDS011;57514;52.164;5.282;2023-07-31T13:03:25;8.60;;;3.33;;
70148;SDS011;57514;52.164;5.282;2023-07-31T13:05:53;8.73;;;4.05;;
70148;SDS011;57514;52.164;5.282;2023-07-31T13:08:21;9.75;;;4.05;;
70148;SDS011;57514;52.164;5.282;2023-07-31T13:10:48;8.80;;;4.03;;
70148;SDS011;57514;52.164;5.282;2023-07-31T13:13:16;10.68;;;4.05;;
70148;SDS011;57514;52.164;5.282;2023-07-31T13:15:43;10.35;;;4.05;;
70148;SDS011;57514;52.164;5.282;2023-07-31T13:18:11;9.82;;;3.13;;
70148;SDS011;57514;52.164;5.282;2023-07-31T13:20:38;9.45;;;3.15;;
70148;SDS011;57514;52.164;5.282;2023-07-31T13:23:06;8.82;;;3.90;;
70148;SDS011;57514;52.164;5.282;2023-07-31T13:25:33;8.90;;;3.10;;
70148;SDS011;57514;52.164;5.282;2023-07-31T13:28:01;8.38;;;3.38;;
70148;SDS011;57514;52.164;5.282;2023-07-31T13:30:29;8.45;;;3.40;;
70148;SDS011;57514;52.164;5.282;2023-07-31T13:32:56;7.45;;;3.63;;
70148;SDS011;57514;52.164;5.282;2023-07-31T13:35:23;7.00;;;2.92;;
70148;SDS011;57514;52.164;5.282;2023-07-31T13:37:51;10.45;;;3.22;;
70148;SDS011;57514;52.164;5.282;2023-07-31T13:40:18;7.72;;;3.00;;
70148;SDS011;57514;52.164;5.282;2023-07-31T13:42:45;7.20;;;2.67;;
70148;SDS011;57514;52.164;5.282;2023-07-31T13:45:14;7.13;;;2.60;;
70148;SDS011;57514;52.164;5.282;2023-07-31T13:47:40;6.90;;;2.90;;
70148;SDS011;57514;52.164;5.282;2023-07-31T13:50:08;7.50;;;2.70;;
70148;SDS011;57514;52.164;5.282;2023-07-31T13:52:35;5.53;;;2.28;;
70148;SDS011;57514;52.164;5.282;2023-07-31T13:55:02;4.80;;;1.90;;
70148;SDS011;57514;52.164;5.282;2023-07-31T13:57:30;5.07;;;1.95;;
70148;SDS011;57514;52.164;5.282;2023-07-31T13:59:57;2.45;;;1.35;;
70148;SDS011;57514;52.164;5.282;2023-07-31T14:02:24;2.65;;;1.58;;
70148;SDS011;57514;52.164;5.282;2023-07-31T14:04:51;2.85;;;1.38;;
70148;SDS011;57514;52.164;5.282;2023-07-31T14:07:18;4.50;;;1.67;;
70148;SDS011;57514;52.164;5.282;2023-07-31T14:09:46;3.53;;;1.60;;
70148;SDS011;57514;52.164;5.282;2023-07-31T14:12:13;2.70;;;1.40;;
70148;SDS011;57514;52.164;5.282;2023-07-31T14:15:00;4.18;;;1.35;;
70148;SDS011;57514;52.164;5.282;2023-07-31T14:17:28;2.10;;;1.20;;
70148;SDS011;57514;52.164;5.282;2023-07-31T14:19:55;2.53;;;1.25;;
70148;SDS011;57514;52.164;5.282;2023-07-31T14:22:29;2.33;;;1.17;;
70148;SDS011;57514;52.164;5.282;2023-07-31T14:24:56;3.92;;;1.50;;
70148;SDS011;57514;52.164;5.282;2023-07-31T14:27:23;3.58;;;1.70;;
70148;SDS011;57514;52.164;5.282;2023-07-31T14:29:51;4.30;;;1.60;;
70148;SDS011;57514;52.164;5.282;2023-07-31T14:32:18;3.88;;;1.52;;
70148;SDS011;57514;52.164;5.282;2023-07-31T14:34:46;3.75;;;1.48;;
70148;SDS011;57514;52.164;5.282;2023-07-31T14:37:12;5.93;;;1.55;;
70148;SDS011;57514;52.164;5.282;2023-07-31T14:39:39;3.78;;;1.52;;
70148;SDS011;57514;52.164;5.282;2023-07-31T14:42:07;5.00;;;1.80;;
70148;SDS011;57514;52.164;5.282;2023-07-31T14:44:34;4.70;;;1.88;;
70148;SDS011;57514;52.164;5.282;2023-07-31T14:47:01;4.97;;;2.25;;
70148;SDS011;57514;52.164;5.282;2023-07-31T14:49:28;7.75;;;2.45;;
70148;SDS011;57514;52.164;5.282;2023-07-31T14:51:57;5.82;;;2.47;;
70148;SDS011;57514;52.164;5.282;2023-07-31T14:54:23;6.82;;;2.65;;
70148;SDS011;57514;52.164;5.282;2023-07-31T14:56:51;7.95;;;2.63;;
70148;SDS011;57514;52.164;5.282;2023-07-31T14:59:18;5.50;;;2.22;;
70148;SDS011;57514;52.164;5.282;2023-07-31T15:01:45;4.28;;;2.17;;
70148;SDS011;57514;52.164;5.282;2023-07-31T15:04:13;4.25;;;2.03;;